sensor_id;sensor_type;location;lat;lon;timestamp;pressure;altitude;pressure_sealevel;temperature
42119;BMP280;27783;42.782;23.274;2023-11-22T00:00:56;94851.44;;;7.40
42119;BMP280;27783;42.782;23.274;2023-11-22T00:03:24;94839.84;;;7.34
42119;BMP280;27783;42.782;23.274;2023-11-22T00:06:10;94851.00;;;7.65
42119;BMP280;27783;42.782;23.274;2023-11-22T00:08:36;94845.75;;;7.72
42119;BMP280;27783;42.782;23.274;2023-11-22T00:11:04;94836.03;;;7.62
42119;BMP280;27783;42.782;23.274;2023-11-22T00:13:30;94856.22;;;7.68
42119;BMP280;27783;42.782;23.274;2023-11-22T00:16:08;94848.72;;;7.74
42119;BMP280;27783;42.782;23.274;2023-11-22T00:18:45;94839.75;;;7.65
42119;BMP280;27783;42.782;23.274;2023-11-22T00:21:18;94863.03;;;7.46
42119;BMP280;27783;42.782;23.274;2023-11-22T00:23:45;94836.81;;;7.52
42119;BMP280;27783;42.782;23.274;2023-11-22T00:26:13;94833.75;;;7.64
42119;BMP280;27783;42.782;23.274;2023-11-22T00:29:01;94850.25;;;7.54
42119;BMP280;27783;42.782;23.274;2023-11-22T00:31:26;94847.66;;;7.48
42119;BMP280;27783;42.782;23.274;2023-11-22T00:33:53;94842.78;;;7.60
42119;BMP280;27783;42.782;23.274;2023-11-22T00:36:18;94836.78;;;7.59
42119;BMP280;27783;42.782;23.274;2023-11-22T00:38:45;94844.22;;;7.71
42119;BMP280;27783;42.782;23.274;2023-11-22T00:41:12;94845.72;;;7.82
42119;BMP280;27783;42.782;23.274;2023-11-22T00:43:39;94855.47;;;7.75
42119;BMP280;27783;42.782;23.274;2023-11-22T00:46:05;94858.13;;;7.61
42119;BMP280;27783;42.782;23.274;2023-11-22T00:48:31;94862.25;;;7.59
42119;BMP280;27783;42.782;23.274;2023-11-22T00:51:01;94872.00;;;7.58
42119;BMP280;27783;42.782;23.274;2023-11-22T00:53:40;94855.16;;;7.49
42119;BMP280;27783;42.782;23.274;2023-11-22T00:56:06;94860.75;;;7.54
42119;BMP280;27783;42.782;23.274;2023-11-22T00:58:33;94842.03;;;7.59
42119;BMP280;27783;42.782;23.274;2023-11-22T01:01:00;94821.09;;;7.35
42119;BMP280;27783;42.782;23.274;2023-11-22T01:03:26;94829.31;;;7.48
42119;BMP280;27783;42.782;23.274;2023-11-22T01:05:52;94832.34;;;7.36
42119;BMP280;27783;42.782;23.274;2023-11-22T01:08:19;94825.22;;;7.40
42119;BMP280;27783;42.782;23.274;2023-11-22T01:10:44;94828.94;;;7.42
42119;BMP280;27783;42.782;23.274;2023-11-22T01:13:12;94829.34;;;7.37
42119;BMP280;27783;42.782;23.274;2023-11-22T01:15:37;94818.88;;;7.37
42119;BMP280;27783;42.782;23.274;2023-11-22T01:18:03;94828.59;;;7.37
42119;BMP280;27783;42.782;23.274;2023-11-22T01:20:29;94829.69;;;7.49
42119;BMP280;27783;42.782;23.274;2023-11-22T01:22:56;94821.84;;;7.43
42119;BMP280;27783;42.782;23.274;2023-11-22T01:25:27;94818.09;;;7.44
42119;BMP280;27783;42.782;23.274;2023-11-22T01:27:53;94821.88;;;7.09
42119;BMP280;27783;42.782;23.274;2023-11-22T01:30:20;94813.66;;;7.00
42119;BMP280;27783;42.782;23.274;2023-11-22T01:32:46;94809.19;;;7.11
42119;BMP280;27783;42.782;23.274;2023-11-22T01:35:25;94805.03;;;7.20
42119;BMP280;27783;42.782;23.274;2023-11-22T01:37:52;94796.78;;;7.28
42119;BMP280;27783;42.782;23.274;2023-11-22T01:40:18;94798.28;;;7.29
42119;BMP280;27783;42.782;23.274;2023-11-22T01:42:44;94800.13;;;7.32
42119;BMP280;27783;42.782;23.274;2023-11-22T01:45:12;94795.66;;;7.32
42119;BMP280;27783;42.782;23.274;2023-11-22T01:47:39;94802.38;;;7.37
42119;BMP280;27783;42.782;23.274;2023-11-22T01:50:06;94789.66;;;7.32
42119;BMP280;27783;42.782;23.274;2023-11-22T01:52:34;94801.28;;;7.24
42119;BMP280;27783;42.782;23.274;2023-11-22T01:55:01;94799.41;;;7.28
42119;BMP280;27783;42.782;23.274;2023-11-22T01:57:31;94800.13;;;7.39
42119;BMP280;27783;42.782;23.274;2023-11-22T02:00:01;94808.75;;;7.29
42119;BMP280;27783;42.782;23.274;2023-11-22T02:02:35;94805.78;;;7.27
42119;BMP280;27783;42.782;23.274;2023-11-22T02:05:02;94797.91;;;7.27
42119;BMP280;27783;42.782;23.274;2023-11-22T02:07:29;94782.22;;;7.14
42119;BMP280;27783;42.782;23.274;2023-11-22T02:09:57;94797.19;;;7.10
42119;BMP280;27783;42.782;23.274;2023-11-22T02:12:24;94791.97;;;6.99
42119;BMP280;27783;42.782;23.274;2023-11-22T02:14:57;94781.84;;;7.05
42119;BMP280;27783;42.782;23.274;2023-11-22T02:17:24;94772.88;;;7.09
42119;BMP280;27783;42.782;23.274;2023-11-22T02:19:56;94768.03;;;7.04
42119;BMP280;27783;42.782;23.274;2023-11-22T02:22:24;94775.13;;;7.04
42119;BMP280;27783;42.782;23.274;2023-11-22T02:24:50;94781.13;;;7.01
42119;BMP280;27783;42.782;23.274;2023-11-22T02:27:16;94777.75;;;7.04
42119;BMP280;27783;42.782;23.274;2023-11-22T02:29:45;94771.72;;;7.17
42119;BMP280;27783;42.782;23.274;2023-11-22T02:32:14;94778.84;;;7.16
42119;BMP280;27783;42.782;23.274;2023-11-22T02:34:46;94780.72;;;7.06
42119;BMP280;27783;42.782;23.274;2023-11-22T02:37:12;94782.25;;;7.00
42119;BMP280;27783;42.782;23.274;2023-11-22T02:40:05;94788.59;;;6.99
42119;BMP280;27783;42.782;23.274;2023-11-22T02:42:34;94779.22;;;7.01
42119;BMP280;27783;42.782;23.274;2023-11-22T02:45:01;94782.22;;;7.14
42119;BMP280;27783;42.782;23.274;2023-11-22T02:47:29;94781.84;;;7.12
42119;BMP280;27783;42.782;23.274;2023-11-22T02:49:56;94781.47;;;7.10
42119;BMP280;27783;42.782;23.274;2023-11-22T02:52:23;94786.34;;;7.08
42119;BMP280;27783;42.782;23.274;2023-11-22T02:54:51;94779.97;;;7.02
42119;BMP280;27783;42.782;23.274;2023-11-22T02:57:18;94788.97;;;6.94
42119;BMP280;27783;42.782;23.274;2023-11-22T02:59:45;94783.00;;;6.90
42119;BMP280;27783;42.782;23.274;2023-11-22T03:02:12;94774.00;;;6.95
42119;BMP280;27783;42.782;23.274;2023-11-22T03:04:38;94789.34;;;6.76
42119;BMP280;27783;42.782;23.274;2023-11-22T03:07:04;94784.50;;;6.74
42119;BMP280;27783;42.782;23.274;2023-11-22T03:09:34;94776.25;;;6.76
42119;BMP280;27783;42.782;23.274;2023-11-22T03:12:07;94784.50;;;6.57
42119;BMP280;27783;42.782;23.274;2023-11-22T03:14:35;94783.34;;;6.65
42119;BMP280;27783;42.782;23.274;2023-11-22T03:17:01;94781.13;;;6.60
42119;BMP280;27783;42.782;23.274;2023-11-22T03:19:27;94778.50;;;6.70
42119;BMP280;27783;42.782;23.274;2023-11-22T03:21:53;94785.25;;;6.68
42119;BMP280;27783;42.782;23.274;2023-11-22T03:24:19;94779.28;;;6.74
42119;BMP280;27783;42.782;23.274;2023-11-22T03:26:45;94791.97;;;6.72
42119;BMP280;27783;42.782;23.274;2023-11-22T03:29:14;94797.97;;;6.69
42119;BMP280;27783;42.782;23.274;2023-11-22T03:31:41;94799.44;;;6.53
42119;BMP280;27783;42.782;23.274;2023-11-22T03:34:07;94799.81;;;6.48
42119;BMP280;27783;42.782;23.274;2023-11-22T03:36:33;94790.50;;;6.61
42119;BMP280;27783;42.782;23.274;2023-11-22T03:39:02;94801.31;;;6.73
42119;BMP280;27783;42.782;23.274;2023-11-22T03:41:28;94799.81;;;6.76
42119;BMP280;27783;42.782;23.274;2023-11-22T03:43:54;94803.59;;;6.75
42119;BMP280;27783;42.782;23.274;2023-11-22T03:46:20;94803.19;;;6.59
42119;BMP280;27783;42.782;23.274;2023-11-22T03:48:51;94794.97;;;6.61
42119;BMP280;27783;42.782;23.274;2023-11-22T03:51:18;94794.56;;;6.55
42119;BMP280;27783;42.782;23.274;2023-11-22T03:53:44;94801.72;;;6.58
42119;BMP280;27783;42.782;23.274;2023-11-22T03:56:10;94794.22;;;6.67
42119;BMP280;27783;42.782;23.274;2023-11-22T03:58:36;94793.47;;;6.73
42119;BMP280;27783;42.782;23.274;2023-11-22T04:01:03;94797.19;;;6.69
42119;BMP280;27783;42.782;23.274;2023-11-22T04:03:31;94788.22;;;6.70
42119;BMP280;27783;42.782;23.274;2023-11-22T04:05:57;94799.81;;;6.69
42119;BMP280;27783;42.782;23.274;2023-11-22T04:08:23;94802.09;;;6.81
42119;BMP280;27783;42.782;23.274;2023-11-22T04:10:51;94809.19;;;6.66
42119;BMP280;27783;42.782;23.274;2023-11-22T04:13:18;94821.09;;;6.37
42119;BMP280;27783;42.782;23.274;2023-11-22T04:15:44;94809.16;;;6.43
42119;BMP280;27783;42.782;23.274;2023-11-22T04:18:10;94828.59;;;6.48
42119;BMP280;27783;42.782;23.274;2023-11-22T04:20:36;94824.88;;;6.56
42119;BMP280;27783;42.782;23.274;2023-11-22T04:23:03;94834.56;;;6.49
42119;BMP280;27783;42.782;23.274;2023-11-22T04:25:29;94841.31;;;6.47
42119;BMP280;27783;42.782;23.274;2023-11-22T04:27:55;94836.09;;;6.57
42119;BMP280;27783;42.782;23.274;2023-11-22T04:30:21;94842.09;;;6.57
42119;BMP280;27783;42.782;23.274;2023-11-22T04:32:47;94843.16;;;6.43
42119;BMP280;27783;42.782;23.274;2023-11-22T04:35:13;94837.19;;;6.39
42119;BMP280;27783;42.782;23.274;2023-11-22T04:37:40;94848.06;;;6.48
42119;BMP280;27783;42.782;23.274;2023-11-22T04:40:08;94841.34;;;6.60
42119;BMP280;27783;42.782;23.274;2023-11-22T04:42:37;94842.84;;;6.65
42119;BMP280;27783;42.782;23.274;2023-11-22T04:45:06;94847.31;;;6.57
42119;BMP280;27783;42.782;23.274;2023-11-22T04:47:32;94855.53;;;6.66
42119;BMP280;27783;42.782;23.274;2023-11-22T04:49:58;94855.56;;;6.80
42119;BMP280;27783;42.782;23.274;2023-11-22T04:52:26;94858.53;;;6.82
42119;BMP280;27783;42.782;23.274;2023-11-22T04:54:51;94869.78;;;6.85
42119;BMP280;27783;42.782;23.274;2023-11-22T04:57:25;94879.88;;;6.83
42119;BMP280;27783;42.782;23.274;2023-11-22T04:59:51;94878.03;;;7.01
42119;BMP280;27783;42.782;23.274;2023-11-22T05:02:19;94869.78;;;6.96
42119;BMP280;27783;42.782;23.274;2023-11-22T05:04:45;94882.13;;;7.29
42119;BMP280;27783;42.782;23.274;2023-11-22T05:07:14;94888.53;;;7.08
42119;BMP280;27783;42.782;23.274;2023-11-22T05:09:40;94897.09;;;7.01
42119;BMP280;27783;42.782;23.274;2023-11-22T05:12:06;94904.97;;;7.01
42119;BMP280;27783;42.782;23.274;2023-11-22T05:14:37;94902.72;;;7.00
42119;BMP280;27783;42.782;23.274;2023-11-22T05:17:05;94906.47;;;7.02
42119;BMP280;27783;42.782;23.274;2023-11-22T05:19:30;94906.47;;;7.13
42119;BMP280;27783;42.782;23.274;2023-11-22T05:21:56;94907.22;;;7.10
42119;BMP280;27783;42.782;23.274;2023-11-22T05:24:23;94912.47;;;7.10
42119;BMP280;27783;42.782;23.274;2023-11-22T05:26:50;94915.44;;;7.12
42119;BMP280;27783;42.782;23.274;2023-11-22T05:29:15;94913.22;;;7.17
42119;BMP280;27783;42.782;23.274;2023-11-22T05:31:44;94925.19;;;7.18
42119;BMP280;27783;42.782;23.274;2023-11-22T05:34:10;94932.69;;;7.13
42119;BMP280;27783;42.782;23.274;2023-11-22T05:36:37;94930.41;;;6.87
42119;BMP280;27783;42.782;23.274;2023-11-22T05:39:05;94934.16;;;6.93
42119;BMP280;27783;42.782;23.274;2023-11-22T05:41:34;94942.38;;;7.05
42119;BMP280;27783;42.782;23.274;2023-11-22T05:44:01;94943.16;;;7.09
42119;BMP280;27783;42.782;23.274;2023-11-22T05:46:28;94947.66;;;7.12
42119;BMP280;27783;42.782;23.274;2023-11-22T05:48:55;94946.91;;;7.22
42119;BMP280;27783;42.782;23.274;2023-11-22T05:51:21;94945.78;;;7.19
42119;BMP280;27783;42.782;23.274;2023-11-22T05:53:47;94949.53;;;7.25
42119;BMP280;27783;42.782;23.274;2023-11-22T05:56:14;94951.78;;;7.23
42119;BMP280;27783;42.782;23.274;2023-11-22T05:58:40;94955.88;;;7.31
42119;BMP280;27783;42.782;23.274;2023-11-22T06:01:22;94962.63;;;7.39
42119;BMP280;27783;42.782;23.274;2023-11-22T06:03:48;94971.25;;;7.43
42119;BMP280;27783;42.782;23.274;2023-11-22T06:06:20;94967.88;;;7.42
42119;BMP280;27783;42.782;23.274;2023-11-22T06:08:54;94963.03;;;7.27
42119;BMP280;27783;42.782;23.274;2023-11-22T06:11:28;94962.63;;;7.32
42119;BMP280;27783;42.782;23.274;2023-11-22T06:13:57;94972.00;;;7.33
42119;BMP280;27783;42.782;23.274;2023-11-22T06:16:22;94976.84;;;7.31
42119;BMP280;27783;42.782;23.274;2023-11-22T06:18:48;94991.47;;;7.49
42119;BMP280;27783;42.782;23.274;2023-11-22T06:21:34;94987.00;;;7.56
42119;BMP280;27783;42.782;23.274;2023-11-22T06:24:02;94989.63;;;7.60
42119;BMP280;27783;42.782;23.274;2023-11-22T06:26:30;94994.88;;;7.66
42119;BMP280;27783;42.782;23.274;2023-11-22T06:28:56;94988.88;;;7.66
42119;BMP280;27783;42.782;23.274;2023-11-22T06:31:24;94996.72;;;7.66
42119;BMP280;27783;42.782;23.274;2023-11-22T06:33:53;95004.59;;;7.59
42119;BMP280;27783;42.782;23.274;2023-11-22T06:36:21;95006.81;;;7.57
42119;BMP280;27783;42.782;23.274;2023-11-22T06:38:49;95016.97;;;7.72
42119;BMP280;27783;42.782;23.274;2023-11-22T06:41:15;95012.81;;;7.71
42119;BMP280;27783;42.782;23.274;2023-11-22T06:43:44;95019.94;;;7.84
42119;BMP280;27783;42.782;23.274;2023-11-22T06:46:11;95021.81;;;7.74
42119;BMP280;27783;42.782;23.274;2023-11-22T06:48:37;95014.34;;;7.89
42119;BMP280;27783;42.782;23.274;2023-11-22T06:51:04;95020.34;;;7.86
42119;BMP280;27783;42.782;23.274;2023-11-22T06:53:34;95021.09;;;7.77
42119;BMP280;27783;42.782;23.274;2023-11-22T06:56:01;95015.81;;;7.83
42119;BMP280;27783;42.782;23.274;2023-11-22T06:58:30;95023.69;;;7.90
42119;BMP280;27783;42.782;23.274;2023-11-22T07:00:57;95015.81;;;8.04
42119;BMP280;27783;42.782;23.274;2023-11-22T07:03:23;95030.06;;;7.93
42119;BMP280;27783;42.782;23.274;2023-11-22T07:05:49;95029.31;;;7.79
42119;BMP280;27783;42.782;23.274;2023-11-22T07:08:16;95039.06;;;7.95
42119;BMP280;27783;42.782;23.274;2023-11-22T07:10:43;95040.94;;;7.98
42119;BMP280;27783;42.782;23.274;2023-11-22T07:13:12;95041.72;;;8.02
42119;BMP280;27783;42.782;23.274;2023-11-22T07:15:38;95039.44;;;8.07
42119;BMP280;27783;42.782;23.274;2023-11-22T07:18:06;95032.31;;;8.08
42119;BMP280;27783;42.782;23.274;2023-11-22T07:20:33;95040.59;;;8.10
42119;BMP280;27783;42.782;23.274;2023-11-22T07:23:00;95046.56;;;8.17
42119;BMP280;27783;42.782;23.274;2023-11-22T07:25:28;95045.81;;;8.16
42119;BMP280;27783;42.782;23.274;2023-11-22T07:27:55;95040.94;;;8.15
42119;BMP280;27783;42.782;23.274;2023-11-22T07:30:21;95049.94;;;8.21
42119;BMP280;27783;42.782;23.274;2023-11-22T07:32:50;95051.03;;;8.27
42119;BMP280;27783;42.782;23.274;2023-11-22T07:35:18;95052.56;;;8.24
42119;BMP280;27783;42.782;23.274;2023-11-22T07:37:46;95062.66;;;8.36
42119;BMP280;27783;42.782;23.274;2023-11-22T07:40:14;95062.28;;;8.34
42119;BMP280;27783;42.782;23.274;2023-11-22T07:42:44;95067.91;;;8.39
42119;BMP280;27783;42.782;23.274;2023-11-22T07:45:10;95070.91;;;8.41
42119;BMP280;27783;42.782;23.274;2023-11-22T07:47:38;95072.78;;;8.41
42119;BMP280;27783;42.782;23.274;2023-11-22T07:50:09;95066.00;;;8.47
42119;BMP280;27783;42.782;23.274;2023-11-22T07:52:56;95065.63;;;8.48
42119;BMP280;27783;42.782;23.274;2023-11-22T07:55:22;95066.75;;;8.57
42119;BMP280;27783;42.782;23.274;2023-11-22T07:57:50;95076.13;;;8.55
42119;BMP280;27783;42.782;23.274;2023-11-22T08:00:17;95079.53;;;8.49
42119;BMP280;27783;42.782;23.274;2023-11-22T08:02:45;95083.69;;;8.32
42119;BMP280;27783;42.782;23.274;2023-11-22T08:05:11;95090.41;;;8.27
42119;BMP280;27783;42.782;23.274;2023-11-22T08:07:39;95075.41;;;8.41
42119;BMP280;27783;42.782;23.274;2023-11-22T08:10:08;95071.28;;;8.30
42119;BMP280;27783;42.782;23.274;2023-11-22T08:12:51;95076.94;;;8.28
42119;BMP280;27783;42.782;23.274;2023-11-22T08:15:17;95075.38;;;8.48
42119;BMP280;27783;42.782;23.274;2023-11-22T08:17:44;95073.13;;;8.49
42119;BMP280;27783;42.782;23.274;2023-11-22T08:20:11;95072.75;;;8.48
42119;BMP280;27783;42.782;23.274;2023-11-22T08:22:44;95074.63;;;8.54
42119;BMP280;27783;42.782;23.274;2023-11-22T08:25:31;95079.50;;;8.66
42119;BMP280;27783;42.782;23.274;2023-11-22T08:27:58;95083.22;;;8.75
42119;BMP280;27783;42.782;23.274;2023-11-22T08:30:25;95082.13;;;8.66
42119;BMP280;27783;42.782;23.274;2023-11-22T08:32:51;95086.22;;;8.63
42119;BMP280;27783;42.782;23.274;2023-11-22T08:35:19;95098.22;;;8.67
42119;BMP280;27783;42.782;23.274;2023-11-22T08:37:47;95086.59;;;8.75
42119;BMP280;27783;42.782;23.274;2023-11-22T08:40:23;95093.72;;;8.75
42119;BMP280;27783;42.782;23.274;2023-11-22T08:42:50;95095.94;;;8.80
42119;BMP280;27783;42.782;23.274;2023-11-22T08:45:17;95096.66;;;8.94
42119;BMP280;27783;42.782;23.274;2023-11-22T08:47:43;95090.63;;;8.97
42119;BMP280;27783;42.782;23.274;2023-11-22T08:50:09;95093.22;;;9.03
42119;BMP280;27783;42.782;23.274;2023-11-22T08:52:45;95105.63;;;8.99
42119;BMP280;27783;42.782;23.274;2023-11-22T08:55:12;95116.88;;;9.07
42119;BMP280;27783;42.782;23.274;2023-11-22T08:57:39;95116.13;;;9.06
42119;BMP280;27783;42.782;23.274;2023-11-22T09:00:10;95120.25;;;9.11
42119;BMP280;27783;42.782;23.274;2023-11-22T09:02:56;95128.84;;;9.21
42119;BMP280;27783;42.782;23.274;2023-11-22T09:05:22;95116.81;;;9.24
42119;BMP280;27783;42.782;23.274;2023-11-22T09:07:48;95108.16;;;9.30
42119;BMP280;27783;42.782;23.274;2023-11-22T09:10:13;95113.75;;;9.32
42119;BMP280;27783;42.782;23.274;2023-11-22T09:12:40;95115.56;;;9.45
42119;BMP280;27783;42.782;23.274;2023-11-22T09:15:17;95127.94;;;9.51
42119;BMP280;27783;42.782;23.274;2023-11-22T09:17:56;95120.50;;;9.40
42119;BMP280;27783;42.782;23.274;2023-11-22T09:20:24;95133.19;;;9.55
42119;BMP280;27783;42.782;23.274;2023-11-22T09:22:52;95127.94;;;9.51
42119;BMP280;27783;42.782;23.274;2023-11-22T09:25:23;95120.41;;;9.60
42119;BMP280;27783;42.782;23.274;2023-11-22T09:27:53;95124.19;;;9.49
42119;BMP280;27783;42.782;23.274;2023-11-22T09:30:27;95123.38;;;9.62
42119;BMP280;27783;42.782;23.274;2023-11-22T09:33:08;95122.66;;;9.58
42119;BMP280;27783;42.782;23.274;2023-11-22T09:35:34;95126.41;;;9.61
42119;BMP280;27783;42.782;23.274;2023-11-22T09:38:02;95142.22;;;9.54
42119;BMP280;27783;42.782;23.274;2023-11-22T09:40:29;95143.34;;;9.56
42119;BMP280;27783;42.782;23.274;2023-11-22T09:42:57;95135.78;;;9.62
42119;BMP280;27783;42.782;23.274;2023-11-22T09:45:23;95139.94;;;9.59
42119;BMP280;27783;42.782;23.274;2023-11-22T09:47:51;95129.38;;;9.66
42119;BMP280;27783;42.782;23.274;2023-11-22T09:50:23;95122.97;;;9.70
42119;BMP280;27783;42.782;23.274;2023-11-22T09:52:52;95128.56;;;9.82
42119;BMP280;27783;42.782;23.274;2023-11-22T09:55:20;95134.56;;;9.86
42119;BMP280;27783;42.782;23.274;2023-11-22T09:57:47;95124.06;;;9.80
42119;BMP280;27783;42.782;23.274;2023-11-22T10:00:16;95124.81;;;9.83
42119;BMP280;27783;42.782;23.274;2023-11-22T10:02:44;95117.53;;;10.01
42119;BMP280;27783;42.782;23.274;2023-11-22T10:05:10;95111.44;;;10.11
42119;BMP280;27783;42.782;23.274;2023-11-22T10:07:37;95117.13;;;10.06
42119;BMP280;27783;42.782;23.274;2023-11-22T10:10:03;95102.78;;;10.14
42119;BMP280;27783;42.782;23.274;2023-11-22T10:12:31;95111.75;;;10.19
42119;BMP280;27783;42.782;23.274;2023-11-22T10:15:11;95111.09;;;10.05
42119;BMP280;27783;42.782;23.274;2023-11-22T10:17:37;95111.72;;;10.23
42119;BMP280;27783;42.782;23.274;2023-11-22T10:20:03;95106.09;;;10.17
42119;BMP280;27783;42.782;23.274;2023-11-22T10:22:29;95113.66;;;10.16
42119;BMP280;27783;42.782;23.274;2023-11-22T10:24:58;95105.38;;;10.17
42119;BMP280;27783;42.782;23.274;2023-11-22T10:27:26;95112.44;;;10.27
42119;BMP280;27783;42.782;23.274;2023-11-22T10:29:51;95117.19;;;10.42
42119;BMP280;27783;42.782;23.274;2023-11-22T10:32:17;95109.34;;;10.35
42119;BMP280;27783;42.782;23.274;2023-11-22T10:34:42;95123.59;;;10.41
42119;BMP280;27783;42.782;23.274;2023-11-22T10:37:08;95116.41;;;10.45
42119;BMP280;27783;42.782;23.274;2023-11-22T10:39:35;95109.34;;;10.35
42119;BMP280;27783;42.782;23.274;2023-11-22T10:42:02;95113.16;;;10.27
42119;BMP280;27783;42.782;23.274;2023-11-22T10:44:29;95107.16;;;10.30
42119;BMP280;27783;42.782;23.274;2023-11-22T10:46:56;95120.63;;;10.39
42119;BMP280;27783;42.782;23.274;2023-11-22T10:49:21;95124.91;;;10.19
42119;BMP280;27783;42.782;23.274;2023-11-22T10:51:51;95127.50;;;10.26
42119;BMP280;27783;42.782;23.274;2023-11-22T10:54:18;95124.78;;;10.36
42119;BMP280;27783;42.782;23.274;2023-11-22T10:56:46;95130.03;;;10.40
42119;BMP280;27783;42.782;23.274;2023-11-22T10:59:15;95128.88;;;10.41
42119;BMP280;27783;42.782;23.274;2023-11-22T11:01:48;95125.09;;;10.42
42119;BMP280;27783;42.782;23.274;2023-11-22T11:04:28;95134.03;;;10.54
42119;BMP280;27783;42.782;23.274;2023-11-22T11:06:55;95127.75;;;10.42
42119;BMP280;27783;42.782;23.274;2023-11-22T11:09:22;95125.03;;;10.49
42119;BMP280;27783;42.782;23.274;2023-11-22T11:11:52;95130.56;;;10.61
42119;BMP280;27783;42.782;23.274;2023-11-22T11:14:19;95127.94;;;10.61
42119;BMP280;27783;42.782;23.274;2023-11-22T11:16:45;95125.66;;;10.66
42119;BMP280;27783;42.782;23.274;2023-11-22T11:19:16;95128.75;;;10.54
42119;BMP280;27783;42.782;23.274;2023-11-22T11:21:43;95123.94;;;10.46
42119;BMP280;27783;42.782;23.274;2023-11-22T11:24:09;95127.97;;;10.57
42119;BMP280;27783;42.782;23.274;2023-11-22T11:26:35;95125.59;;;10.73
42119;BMP280;27783;42.782;23.274;2023-11-22T11:29:00;95126.31;;;10.73
42119;BMP280;27783;42.782;23.274;2023-11-22T11:31:38;95124.94;;;10.62
42119;BMP280;27783;42.782;23.274;2023-11-22T11:34:07;95137.03;;;10.56
42119;BMP280;27783;42.782;23.274;2023-11-22T11:36:33;95135.09;;;10.60
42119;BMP280;27783;42.782;23.274;2023-11-22T11:39:05;95125.06;;;10.45
42119;BMP280;27783;42.782;23.274;2023-11-22T11:41:35;95126.63;;;10.39
42119;BMP280;27783;42.782;23.274;2023-11-22T11:44:07;95124.56;;;10.60
42119;BMP280;27783;42.782;23.274;2023-11-22T11:46:33;95124.88;;;10.69
42119;BMP280;27783;42.782;23.274;2023-11-22T11:48:59;95131.94;;;10.75
42119;BMP280;27783;42.782;23.274;2023-11-22T11:51:25;95123.78;;;10.63
42119;BMP280;27783;42.782;23.274;2023-11-22T11:53:52;95131.03;;;10.52
42119;BMP280;27783;42.782;23.274;2023-11-22T11:56:18;95134.75;;;10.58
42119;BMP280;27783;42.782;23.274;2023-11-22T11:58:49;95134.72;;;10.62
42119;BMP280;27783;42.782;23.274;2023-11-22T12:01:20;95133.19;;;10.64
42119;BMP280;27783;42.782;23.274;2023-11-22T12:03:46;95138.44;;;10.64
42119;BMP280;27783;42.782;23.274;2023-11-22T12:06:16;95142.25;;;10.63
42119;BMP280;27783;42.782;23.274;2023-11-22T12:08:47;95131.53;;;10.77
42119;BMP280;27783;42.782;23.274;2023-11-22T12:11:15;95142.56;;;10.68
42119;BMP280;27783;42.782;23.274;2023-11-22T12:13:43;95134.38;;;10.60
42119;BMP280;27783;42.782;23.274;2023-11-22T12:16:13;95144.47;;;10.65
42119;BMP280;27783;42.782;23.274;2023-11-22T12:18:42;95148.19;;;10.70
42119;BMP280;27783;42.782;23.274;2023-11-22T12:21:08;95157.28;;;10.66
42119;BMP280;27783;42.782;23.274;2023-11-22T12:23:38;95154.06;;;10.84
42119;BMP280;27783;42.782;23.274;2023-11-22T12:26:04;95147.63;;;10.89
42119;BMP280;27783;42.782;23.274;2023-11-22T12:28:30;95156.38;;;10.82
42119;BMP280;27783;42.782;23.274;2023-11-22T12:30:55;95152.28;;;10.75
42119;BMP280;27783;42.782;23.274;2023-11-22T12:33:31;95160.53;;;10.77
42119;BMP280;27783;42.782;23.274;2023-11-22T12:35:57;95156.00;;;10.81
42119;BMP280;27783;42.782;23.274;2023-11-22T12:38:24;95161.69;;;10.76
42119;BMP280;27783;42.782;23.274;2023-11-22T12:40:51;95163.53;;;10.82
42119;BMP280;27783;42.782;23.274;2023-11-22T12:43:17;95163.91;;;10.81
42119;BMP280;27783;42.782;23.274;2023-11-22T12:45:43;95166.16;;;10.82
42119;BMP280;27783;42.782;23.274;2023-11-22T12:48:21;95172.56;;;10.81
42119;BMP280;27783;42.782;23.274;2023-11-22T12:50:48;95175.50;;;10.86
42119;BMP280;27783;42.782;23.274;2023-11-22T12:53:15;95178.84;;;10.94
42119;BMP280;27783;42.782;23.274;2023-11-22T12:55:51;95187.97;;;10.86
42119;BMP280;27783;42.782;23.274;2023-11-22T12:58:18;95193.22;;;10.89
42119;BMP280;27783;42.782;23.274;2023-11-22T13:00:46;95192.78;;;10.94
42119;BMP280;27783;42.782;23.274;2023-11-22T13:03:12;95187.47;;;10.98
42119;BMP280;27783;42.782;23.274;2023-11-22T13:05:43;95194.25;;;10.99
42119;BMP280;27783;42.782;23.274;2023-11-22T13:08:09;95195.69;;;11.03
42119;BMP280;27783;42.782;23.274;2023-11-22T13:10:51;95205.22;;;10.90
42119;BMP280;27783;42.782;23.274;2023-11-22T13:13:22;95207.44;;;10.99
42119;BMP280;27783;42.782;23.274;2023-11-22T13:15:48;95194.66;;;10.94
42119;BMP280;27783;42.782;23.274;2023-11-22T13:18:16;95206.69;;;10.95
42119;BMP280;27783;42.782;23.274;2023-11-22T13:20:42;95201.38;;;11.01
42119;BMP280;27783;42.782;23.274;2023-11-22T13:23:08;95202.94;;;10.96
42119;BMP280;27783;42.782;23.274;2023-11-22T13:25:33;95208.59;;;10.94
42119;BMP280;27783;42.782;23.274;2023-11-22T13:27:58;95212.69;;;10.99
42119;BMP280;27783;42.782;23.274;2023-11-22T13:30:25;95210.47;;;10.94
42119;BMP280;27783;42.782;23.274;2023-11-22T13:32:51;95214.63;;;10.95
42119;BMP280;27783;42.782;23.274;2023-11-22T13:35:17;95220.63;;;10.99
42119;BMP280;27783;42.782;23.274;2023-11-22T13:37:46;95217.28;;;10.91
42119;BMP280;27783;42.782;23.274;2023-11-22T13:40:15;95225.72;;;10.76
42119;BMP280;27783;42.782;23.274;2023-11-22T13:42:45;95233.56;;;10.83
42119;BMP280;27783;42.782;23.274;2023-11-22T13:45:12;95234.31;;;10.80
42119;BMP280;27783;42.782;23.274;2023-11-22T13:47:42;95241.50;;;10.80
42119;BMP280;27783;42.782;23.274;2023-11-22T13:50:08;95240.34;;;10.81
42119;BMP280;27783;42.782;23.274;2023-11-22T13:52:34;95244.88;;;10.77
42119;BMP280;27783;42.782;23.274;2023-11-22T13:55:00;95250.19;;;10.73
42119;BMP280;27783;42.782;23.274;2023-11-22T13:57:26;95253.66;;;10.60
42119;BMP280;27783;42.782;23.274;2023-11-22T13:59:52;95258.13;;;10.70
42119;BMP280;27783;42.782;23.274;2023-11-22T14:02:18;95260.00;;;10.73
42119;BMP280;27783;42.782;23.274;2023-11-22T14:04:44;95250.66;;;10.62
42119;BMP280;27783;42.782;23.274;2023-11-22T14:07:11;95261.19;;;10.65
42119;BMP280;27783;42.782;23.274;2023-11-22T14:09:36;95257.41;;;10.69